Laguna, New Mexico
Current Conditions -  °F | °C
As of 3:16 AM on Saturday 25 Oct 2014 (Local Time) from KGNT Reporting Station
Clear Clear  
Wind Chill: 33°   Ceiling: Unl
Heat Index: 37°   Visibility: 10mi
Dew Point: 25°   Wind: 6mph
Humidity: 60%   Direction: 300°WNW
Pressure: 30.38"   Gusts: NA
Location:  35.04°N, 107.39°W
Report Text: KGNT 250916Z AUTO 30005KT 10SM CLR 03/M04 A3038 RMK AO2
Loading
Personal Weather Stations






























Interactive Weather Map
Tropical Storm Tracking
New forecast layout! Learn more

10-Day Weather Forecast

Advertisements
Track Severe Weather on mobile